createdAt,value
2023-01-03T00:01:25.792Z,97191.19
2023-01-03T00:03:54.461Z,97194.75
2023-01-03T00:06:29.696Z,97184.00
2023-01-03T00:08:58.388Z,97195.81
2023-01-03T00:11:48.882Z,97207.47
2023-01-03T00:14:23.444Z,97230.00
2023-01-03T00:16:52.619Z,97242.47
2023-01-03T00:19:20.110Z,97225.94
2023-01-03T00:21:47.197Z,97225.94
2023-01-03T00:24:14.013Z,97213.84
2023-01-03T00:26:41.144Z,97198.56
2023-01-03T00:29:08.576Z,97182.97
2023-01-03T00:31:36.664Z,97190.94
2023-01-03T00:34:03.665Z,97185.31
2023-01-03T00:36:30.421Z,97209.84
2023-01-03T00:38:57.371Z,97229.25
2023-01-03T00:41:23.989Z,97214.66
2023-01-03T00:43:50.870Z,97228.75
2023-01-03T00:46:19.165Z,97222.00
2023-01-03T00:48:46.392Z,97227.03
2023-01-03T00:51:17.264Z,97227.88
2023-01-03T00:53:46.087Z,97205.94
2023-01-03T00:56:15.787Z,97186.81
2023-01-03T00:58:43.145Z,97212.66
2023-01-03T01:01:11.713Z,97217.97
2023-01-03T01:03:41.579Z,97223.72
2023-01-03T01:06:17.371Z,97225.91
2023-01-03T01:08:45.059Z,97234.47
2023-01-03T01:11:14.370Z,97227.28
2023-01-03T01:13:42.210Z,97238.34
2023-01-03T01:16:12.600Z,97253.47
2023-01-03T01:18:40.820Z,97253.25
2023-01-03T01:21:10.122Z,97260.97
2023-01-03T01:23:38.707Z,97256.91
2023-01-03T01:26:07.446Z,97257.78
2023-01-03T01:28:34.433Z,97261.06
2023-01-03T01:31:03.568Z,97259.19
2023-01-03T01:33:33.266Z,97268.69
2023-01-03T01:36:15.134Z,97266.88
2023-01-03T01:38:41.761Z,97269.75
2023-01-03T01:41:10.913Z,97280.16
2023-01-03T01:44:14.880Z,97247.91
2023-01-03T01:46:42.145Z,97283.06
2023-01-03T01:49:15.128Z,97280.31
2023-01-03T01:51:42.221Z,97287.16
2023-01-03T01:54:10.128Z,97262.91
2023-01-03T01:56:50.459Z,97293.19
2023-01-03T01:59:17.142Z,97296.88
2023-01-03T02:01:46.120Z,97298.97
2023-01-03T02:04:21.784Z,97293.06
2023-01-03T02:06:49.176Z,97283.16
2023-01-03T02:09:16.268Z,97294.91
2023-01-03T02:11:48.850Z,97293.63
2023-01-03T02:14:43.512Z,97305.94
2023-01-03T02:17:16.267Z,97305.09
2023-01-03T02:20:15.429Z,97302.47
2023-01-03T02:22:57.128Z,97306.31
2023-01-03T02:25:29.783Z,97302.34
2023-01-03T02:28:26.916Z,97281.00
2023-01-03T02:31:03.482Z,97275.94
2023-01-03T02:33:39.732Z,97305.59
2023-01-03T02:36:39.891Z,97305.59
2023-01-03T02:39:23.516Z,97309.22
2023-01-03T02:42:19.299Z,97285.47
2023-01-03T02:45:28.018Z,97300.41
2023-01-03T02:48:01.653Z,97306.41
2023-01-03T02:50:31.740Z,97300.13
2023-01-03T02:53:03.707Z,97288.91
2023-01-03T02:55:33.147Z,97286.81
2023-01-03T02:58:10.019Z,97270.84
2023-01-03T03:00:41.811Z,97275.44
2023-01-03T03:03:14.675Z,97310.63
2023-01-03T03:06:08.711Z,97307.94
2023-01-03T03:08:35.562Z,97304.50
2023-01-03T03:11:20.732Z,97300.72
2023-01-03T03:13:52.855Z,97304.66
2023-01-03T03:16:49.943Z,97317.88
2023-01-03T03:19:39.600Z,97311.69
2023-01-03T03:22:41.801Z,97285.50
2023-01-03T03:25:27.817Z,97293.06
2023-01-03T03:28:18.253Z,97326.38
2023-01-03T03:30:47.969Z,97318.94
2023-01-03T03:33:20.141Z,97317.16
2023-01-03T03:35:53.962Z,97288.13
2023-01-03T03:38:33.751Z,97314.88
2023-01-03T03:41:34.163Z,97318.50
2023-01-03T03:44:31.479Z,97303.66
2023-01-03T03:47:20.807Z,97321.50
2023-01-03T03:49:50.544Z,97324.34
2023-01-03T03:52:20.663Z,97302.47
2023-01-03T03:54:54.409Z,97325.53
2023-01-03T03:57:26.610Z,97318.78
2023-01-03T04:00:01.463Z,97323.94
2023-01-03T04:02:31.017Z,97328.72
2023-01-03T04:05:00.673Z,97292.97
2023-01-03T04:07:27.580Z,97282.28
2023-01-03T04:09:54.355Z,97305.09
2023-01-03T04:12:21.145Z,97300.44
2023-01-03T04:14:47.815Z,97310.16
2023-01-03T04:17:14.490Z,97313.00
2023-01-03T04:19:41.088Z,97298.13
2023-01-03T04:22:07.667Z,97295.78
2023-01-03T04:24:34.317Z,97303.56
2023-01-03T04:27:00.952Z,97329.00
2023-01-03T04:29:27.644Z,97302.06
2023-01-03T04:31:54.356Z,97302.59
2023-01-03T04:34:22.696Z,97302.31
2023-01-03T04:36:49.323Z,97325.88
2023-01-03T04:39:17.117Z,97340.75
2023-01-03T04:41:43.659Z,97325.47
2023-01-03T04:44:10.332Z,97352.09
2023-01-03T04:46:40.214Z,97348.16
2023-01-03T04:49:09.421Z,97354.56
2023-01-03T04:51:36.355Z,97347.03
2023-01-03T04:54:04.431Z,97353.59
2023-01-03T04:56:34.156Z,97339.72
2023-01-03T04:59:01.538Z,97350.75
2023-01-03T05:01:28.237Z,97357.50
2023-01-03T05:04:00.657Z,97356.75
2023-01-03T05:06:28.214Z,97306.53
2023-01-03T05:08:55.347Z,97328.78
2023-01-03T05:11:22.041Z,97361.69
2023-01-03T05:13:48.671Z,97370.59
2023-01-03T05:16:15.445Z,97382.69
2023-01-03T05:18:44.119Z,97373.22
2023-01-03T05:21:34.876Z,97373.97
2023-01-03T05:24:20.513Z,97382.63
2023-01-03T05:26:47.468Z,97387.63
2023-01-03T05:29:16.608Z,97387.94
2023-01-03T05:31:43.263Z,97370.66
2023-01-03T05:34:10.243Z,97357.53
2023-01-03T05:36:37.025Z,97362.31
2023-01-03T05:39:04.525Z,97365.47
2023-01-03T05:41:49.747Z,97351.09
2023-01-03T05:44:16.824Z,97380.97
2023-01-03T05:46:44.154Z,97379.66
2023-01-03T05:49:11.013Z,97387.81
2023-01-03T05:51:37.662Z,97351.97
2023-01-03T05:54:04.428Z,97354.34
2023-01-03T05:56:32.231Z,97286.25
2023-01-03T05:58:59.582Z,97351.19
2023-01-03T06:01:28.304Z,97332.31
2023-01-03T06:03:55.669Z,97349.31
2023-01-03T06:06:22.481Z,97382.84
2023-01-03T06:08:49.709Z,97387.50
2023-01-03T06:11:17.882Z,97375.47
2023-01-03T06:13:45.194Z,97366.03
2023-01-03T06:16:34.263Z,97349.75
2023-01-03T06:19:02.194Z,97393.78
2023-01-03T06:21:29.004Z,97398.03
2023-01-03T06:23:55.733Z,97380.97
2023-01-03T06:26:24.299Z,97404.81
2023-01-03T06:28:51.305Z,97373.34
2023-01-03T06:31:18.877Z,97415.78
2023-01-03T06:33:45.817Z,97386.69
2023-01-03T06:36:14.854Z,97393.72
2023-01-03T06:38:41.807Z,97417.03
2023-01-03T06:41:08.839Z,97409.72
2023-01-03T06:43:35.784Z,97426.28
2023-01-03T06:46:21.473Z,97421.31
2023-01-03T06:49:06.770Z,97399.84
2023-01-03T06:51:52.464Z,97410.06
2023-01-03T06:54:22.068Z,97435.72
2023-01-03T06:56:50.130Z,97435.41
2023-01-03T06:59:17.816Z,97414.63
2023-01-03T07:01:45.973Z,97412.75
2023-01-03T07:04:13.376Z,97415.34
2023-01-03T07:06:41.182Z,97446.59
2023-01-03T07:09:08.985Z,97416.88
2023-01-03T07:11:36.762Z,97446.28
2023-01-03T07:14:04.046Z,97425.91
2023-01-03T07:16:36.177Z,97460.88
2023-01-03T07:19:05.067Z,97453.09
2023-01-03T07:21:33.409Z,97458.31
2023-01-03T07:24:04.178Z,97464.09
2023-01-03T07:26:33.400Z,97462.81
2023-01-03T07:29:01.447Z,97456.75
2023-01-03T07:31:28.362Z,97464.59
2023-01-03T07:33:55.275Z,97470.03
2023-01-03T07:36:22.353Z,97445.56
2023-01-03T07:38:49.578Z,97471.06
2023-01-03T07:41:17.412Z,97472.38
2023-01-03T07:43:47.300Z,97460.59
2023-01-03T07:46:22.603Z,97481.53
2023-01-03T07:48:51.846Z,97479.25
2023-01-03T07:51:21.586Z,97484.56
2023-01-03T07:53:53.022Z,97473.84
2023-01-03T07:56:22.178Z,97469.91
2023-01-03T07:58:52.021Z,97459.66
2023-01-03T08:01:24.031Z,97459.41
2023-01-03T08:03:51.931Z,97485.97
2023-01-03T08:06:21.765Z,97489.63
2023-01-03T08:09:07.335Z,97486.75
2023-01-03T08:11:52.501Z,97465.91
2023-01-03T08:14:25.074Z,97477.34
2023-01-03T08:16:53.230Z,97474.03
2023-01-03T08:19:19.824Z,97478.84
2023-01-03T08:21:46.465Z,97497.09
2023-01-03T08:24:13.061Z,97513.59
2023-01-03T08:26:39.749Z,97463.47
2023-01-03T08:29:07.285Z,97510.13
2023-01-03T08:31:39.007Z,97508.09
2023-01-03T08:34:15.513Z,97511.50
2023-01-03T08:36:47.920Z,97514.91
2023-01-03T08:39:18.906Z,97518.31
2023-01-03T08:41:50.591Z,97516.47
2023-01-03T08:44:17.178Z,97510.00
2023-01-03T08:46:51.722Z,97520.34
2023-01-03T08:49:19.277Z,97493.91
2023-01-03T08:51:46.054Z,97526.72
2023-01-03T08:54:12.931Z,97535.63
2023-01-03T08:56:40.175Z,97543.50
2023-01-03T08:59:07.167Z,97545.88
2023-01-03T09:01:37.044Z,97546.66
2023-01-03T09:04:05.453Z,97500.78
2023-01-03T09:06:32.396Z,97561.09
2023-01-03T09:08:59.225Z,97547.22
2023-01-03T09:11:25.911Z,97531.47
2023-01-03T09:13:55.273Z,97529.06
2023-01-03T09:16:21.892Z,97488.94
2023-01-03T09:18:48.555Z,97541.97
2023-01-03T09:21:15.169Z,97468.00
2023-01-03T09:23:41.773Z,97558.78
2023-01-03T09:26:08.607Z,97561.66
2023-01-03T09:28:35.370Z,97556.69
2023-01-03T09:31:02.159Z,97550.13
2023-01-03T09:33:28.815Z,97549.34
2023-01-03T09:35:55.691Z,97542.50
2023-01-03T09:38:23.462Z,97556.16
2023-01-03T09:41:02.285Z,97562.97
2023-01-03T09:43:40.932Z,97555.09
2023-01-03T09:46:17.226Z,97559.31
2023-01-03T09:48:44.984Z,97557.72
2023-01-03T09:51:42.985Z,97564.56
2023-01-03T09:54:48.113Z,97557.19
2023-01-03T09:57:59.839Z,97551.66
2023-01-03T10:00:51.225Z,97518.59
2023-01-03T10:03:50.934Z,97552.72
2023-01-03T10:07:00.000Z,97562.16
2023-01-03T10:09:29.227Z,97567.16
2023-01-03T10:12:05.009Z,97568.50
2023-01-03T10:14:38.086Z,97565.31
2023-01-03T10:17:22.981Z,97565.56
2023-01-03T10:20:02.805Z,97565.00
2023-01-03T10:22:31.926Z,97560.53
2023-01-03T10:25:04.654Z,97563.69
2023-01-03T10:27:35.456Z,97574.97
2023-01-03T10:30:12.966Z,97570.78
2023-01-03T10:33:00.484Z,97572.09
2023-01-03T10:35:32.454Z,97563.41
2023-01-03T10:37:59.996Z,97533.50
2023-01-03T10:41:00.019Z,97566.03
2023-01-03T10:43:26.567Z,97565.53
2023-01-03T10:45:59.719Z,97543.75
2023-01-03T10:49:00.183Z,97558.66
2023-01-03T10:51:43.456Z,97549.94
2023-01-03T10:54:26.746Z,97554.94
2023-01-03T10:56:53.382Z,97539.22
2023-01-03T10:59:29.399Z,97550.94
2023-01-03T11:01:57.673Z,97541.69
2023-01-03T11:04:25.027Z,97544.53
2023-01-03T11:07:12.199Z,97553.47
2023-01-03T11:09:54.066Z,97546.66
2023-01-03T11:12:29.005Z,97546.06
2023-01-03T11:14:57.899Z,97463.53
2023-01-03T11:17:26.549Z,97545.91
2023-01-03T11:19:53.403Z,97529.22
2023-01-03T11:22:42.057Z,97542.22
2023-01-03T11:25:14.739Z,97542.38
2023-01-03T11:28:22.560Z,97541.44
2023-01-03T11:31:46.448Z,97472.03
2023-01-03T11:34:48.102Z,97539.88
2023-01-03T11:37:32.932Z,97538.03
2023-01-03T11:40:27.224Z,97521.22
2023-01-03T11:43:36.224Z,97494.75
2023-01-03T11:46:30.927Z,97530.88
2023-01-03T11:49:19.711Z,97510.50
2023-01-03T11:52:15.595Z,97526.78
2023-01-03T11:54:53.129Z,97511.63
2023-01-03T11:57:58.430Z,97531.56
2023-01-03T12:00:37.797Z,97534.44
2023-01-03T12:03:09.459Z,97515.31
2023-01-03T12:05:41.893Z,97533.63
2023-01-03T12:08:11.666Z,97538.09
2023-01-03T12:11:06.887Z,97538.06
2023-01-03T12:13:37.945Z,97497.97
2023-01-03T12:16:10.960Z,97499.56
2023-01-03T12:19:06.900Z,97527.78
2023-01-03T12:21:40.320Z,97510.56
2023-01-03T12:24:20.348Z,97526.53
2023-01-03T12:26:58.027Z,97488.19
2023-01-03T12:29:31.592Z,97526.78
2023-01-03T12:32:06.810Z,97516.13
2023-01-03T12:34:47.643Z,97523.09
2023-01-03T12:37:20.707Z,97517.41
2023-01-03T12:39:55.474Z,97521.66
2023-01-03T12:42:45.712Z,97521.56
2023-01-03T12:45:29.811Z,97497.00
2023-01-03T12:48:33.492Z,97516.38
2023-01-03T12:51:00.680Z,97493.88
2023-01-03T12:53:34.320Z,97517.38
2023-01-03T12:56:07.105Z,97511.25
2023-01-03T12:58:41.909Z,97507.56
2023-01-03T13:01:12.427Z,97510.97
2023-01-03T13:03:44.296Z,97477.50
2023-01-03T13:06:20.850Z,97459.25
2023-01-03T13:08:57.876Z,97506.47
2023-01-03T13:11:33.516Z,97498.34
2023-01-03T13:14:08.909Z,97420.03
2023-01-03T13:16:54.640Z,97475.75
2023-01-03T13:19:24.167Z,97498.19
2023-01-03T13:21:53.728Z,97505.34
2023-01-03T13:24:40.325Z,97501.97
2023-01-03T13:27:19.464Z,97509.75
2023-01-03T13:29:49.030Z,97499.19
2023-01-03T13:32:21.843Z,97511.88
2023-01-03T13:34:54.704Z,97508.50
2023-01-03T13:37:22.294Z,97486.25
2023-01-03T13:39:52.034Z,97517.16
2023-01-03T13:42:31.060Z,97519.22
2023-01-03T13:45:23.828Z,97517.88
2023-01-03T13:47:53.292Z,97516.56
2023-01-03T13:50:32.159Z,97526.78
2023-01-03T13:53:03.752Z,97514.22
2023-01-03T13:55:56.813Z,97479.50
2023-01-03T13:58:46.722Z,97518.97
2023-01-03T14:01:33.739Z,97520.50
2023-01-03T14:04:41.196Z,97485.78
2023-01-03T14:07:26.881Z,97492.19
2023-01-03T14:10:13.771Z,97528.00
2023-01-03T14:13:06.470Z,97530.47
2023-01-03T14:15:33.705Z,97491.22
2023-01-03T14:18:15.082Z,97513.69
2023-01-03T14:20:49.147Z,97479.97
2023-01-03T14:26:15.035Z,97522.00
2023-01-03T14:28:46.454Z,97500.22
2023-01-03T14:31:23.090Z,97488.44
2023-01-03T14:33:56.047Z,97508.06
2023-01-03T14:36:22.829Z,97478.56
2023-01-03T14:39:01.359Z,97520.41
2023-01-03T14:41:38.690Z,97515.19
2023-01-03T14:44:11.460Z,97534.78
2023-01-03T14:46:40.694Z,97483.84
2023-01-03T14:49:19.454Z,97501.00
2023-01-03T14:51:46.555Z,97497.50
2023-01-03T14:54:17.948Z,97491.63
2023-01-03T14:56:46.634Z,97477.88
2023-01-03T14:59:19.665Z,97468.28
2023-01-03T15:01:47.494Z,97509.44
2023-01-03T15:04:16.626Z,97518.66
2023-01-03T15:07:11.316Z,97516.31
2023-01-03T15:09:40.408Z,97483.88
2023-01-03T15:12:07.753Z,97493.31
2023-01-03T15:14:39.249Z,97469.50
2023-01-03T15:17:15.267Z,97410.09
2023-01-03T15:19:49.996Z,97496.63
2023-01-03T15:22:22.527Z,97528.88
2023-01-03T15:25:01.699Z,97362.19
2023-01-03T15:27:49.551Z,97534.66
2023-01-03T15:30:17.228Z,97539.66
2023-01-03T15:33:19.841Z,97507.38
2023-01-03T15:35:49.881Z,97539.91
2023-01-03T15:38:29.636Z,97547.25
2023-01-03T15:40:56.417Z,97517.63
2023-01-03T15:43:36.523Z,97551.97
2023-01-03T15:46:05.287Z,97560.84
2023-01-03T15:48:36.803Z,97518.53
2023-01-03T15:51:05.331Z,97564.66
2023-01-03T15:53:40.940Z,97556.81
2023-01-03T15:56:35.190Z,97565.44
2023-01-03T15:59:07.023Z,97560.19
2023-01-03T16:01:33.900Z,97528.56
2023-01-03T16:04:00.726Z,97499.38
2023-01-03T16:06:27.351Z,97542.06
2023-01-03T16:08:53.962Z,97549.94
2023-01-03T16:11:33.305Z,97510.72
2023-01-03T16:14:04.855Z,97561.88
2023-01-03T16:16:35.604Z,97570.28
2023-01-03T16:19:05.610Z,97526.66
2023-01-03T16:21:32.753Z,97559.19
2023-01-03T16:23:59.895Z,97556.31
2023-01-03T16:26:26.623Z,97549.53
2023-01-03T16:28:53.322Z,97501.72
2023-01-03T16:31:30.281Z,97495.09
2023-01-03T16:33:57.041Z,97528.25
2023-01-03T16:36:29.777Z,97569.16
2023-01-03T16:38:56.480Z,97504.63
2023-01-03T16:41:23.184Z,97549.31
2023-01-03T16:43:49.992Z,97553.81
2023-01-03T16:46:20.741Z,97561.34
2023-01-03T16:48:52.844Z,97565.91
2023-01-03T16:51:24.856Z,97569.94
2023-01-03T16:53:53.512Z,97531.56
2023-01-03T16:56:20.474Z,97377.16
2023-01-03T16:58:47.280Z,97558.59
2023-01-03T17:01:14.490Z,97574.34
2023-01-03T17:03:42.287Z,97550.63
2023-01-03T17:06:43.956Z,97534.59
2023-01-03T17:09:20.903Z,97544.41
2023-01-03T17:11:48.402Z,97576.81
2023-01-03T17:14:23.871Z,97507.84
2023-01-03T17:16:50.933Z,97557.66
2023-01-03T17:20:02.922Z,97562.56
2023-01-03T17:22:18.722Z,97554.28
2023-01-03T17:24:46.546Z,97505.97
2023-01-03T17:27:18.122Z,97588.88
2023-01-03T17:29:46.035Z,97596.22
2023-01-03T17:32:18.772Z,97600.75
2023-01-03T17:34:45.940Z,97558.13
2023-01-03T17:37:19.992Z,97597.56
2023-01-03T17:39:53.121Z,97562.78
2023-01-03T17:42:20.341Z,97599.53
2023-01-03T17:45:06.652Z,97580.34
2023-01-03T17:47:56.917Z,97558.69
2023-01-03T17:50:23.963Z,97554.13
2023-01-03T17:52:55.692Z,97584.63
2023-01-03T17:55:26.357Z,97573.78
2023-01-03T17:57:57.275Z,97609.91
2023-01-03T18:00:26.361Z,97610.50
2023-01-03T18:02:54.642Z,97580.81
2023-01-03T18:05:27.824Z,97605.75
2023-01-03T18:07:57.071Z,97569.84
2023-01-03T18:10:46.152Z,97583.50
2023-01-03T18:13:28.283Z,97607.03
2023-01-03T18:15:55.896Z,97600.09
2023-01-03T18:18:24.032Z,97590.50
2023-01-03T18:20:51.499Z,97584.94
2023-01-03T18:23:29.663Z,97595.34
2023-01-03T18:25:59.960Z,97570.00
2023-01-03T18:28:28.347Z,97566.13
2023-01-03T18:30:56.035Z,97599.28
2023-01-03T18:33:23.320Z,97617.47
2023-01-03T18:35:50.300Z,97610.63
2023-01-03T18:38:29.431Z,97581.06
2023-01-03T18:41:02.523Z,97598.56
2023-01-03T18:43:31.870Z,97585.78
2023-01-03T18:45:58.645Z,97589.81
2023-01-03T18:48:25.423Z,97559.78
2023-01-03T18:50:58.485Z,97565.78
2023-01-03T18:53:28.856Z,97573.53
2023-01-03T18:55:55.791Z,97571.44
2023-01-03T18:58:38.883Z,97599.13
2023-01-03T19:01:06.248Z,97584.81
2023-01-03T19:03:34.539Z,97596.72
2023-01-03T19:06:02.509Z,97600.44
2023-01-03T19:08:33.876Z,97582.06
2023-01-03T19:11:12.866Z,97551.25
2023-01-03T19:13:50.977Z,97571.78
2023-01-03T19:16:20.463Z,97593.13
2023-01-03T19:18:47.833Z,97606.63
2023-01-03T19:21:15.820Z,97605.44
2023-01-03T19:23:45.732Z,97568.31
2023-01-03T19:26:29.944Z,97599.28
2023-01-03T19:29:01.278Z,97595.09
2023-01-03T19:31:50.660Z,97598.13
2023-01-03T19:34:20.207Z,97593.28
2023-01-03T19:36:47.621Z,97594.38
2023-01-03T19:39:15.439Z,97594.66
2023-01-03T19:42:10.239Z,97594.78
2023-01-03T19:44:37.107Z,97586.72
2023-01-03T19:47:06.066Z,97581.75
2023-01-03T19:49:32.674Z,97566.59
2023-01-03T19:51:59.287Z,97577.75
2023-01-03T19:54:25.887Z,97557.75
2023-01-03T19:56:57.128Z,97590.00
2023-01-03T19:59:31.100Z,97599.38
2023-01-03T20:02:24.123Z,97571.66
2023-01-03T20:04:45.071Z,97570.97
2023-01-03T20:07:13.945Z,97549.34
2023-01-03T20:09:40.530Z,97577.66
2023-01-03T20:12:12.917Z,97563.91
2023-01-03T20:14:42.920Z,97555.06
2023-01-03T20:17:21.662Z,97533.72
2023-01-03T20:19:49.149Z,97558.69
2023-01-03T20:22:44.917Z,97575.66
2023-01-03T20:25:06.228Z,97567.97
2023-01-03T20:27:32.948Z,97519.25
2023-01-03T20:29:59.535Z,97562.53
2023-01-03T20:32:26.156Z,97546.97
2023-01-03T20:34:52.801Z,97563.09
2023-01-03T20:37:26.087Z,97574.16
2023-01-03T20:39:53.152Z,97512.31
2023-01-03T20:42:25.005Z,97561.34
2023-01-03T20:44:51.722Z,97557.44
2023-01-03T20:47:23.304Z,97537.25
2023-01-03T20:49:50.900Z,97567.47
2023-01-03T20:52:18.251Z,97541.31
2023-01-03T20:54:44.971Z,97558.63
2023-01-03T20:57:20.597Z,97535.13
2023-01-03T20:59:47.331Z,97539.31
2023-01-03T21:02:14.093Z,97521.84
2023-01-03T21:04:40.934Z,97516.09
2023-01-03T21:07:25.274Z,97569.72
2023-01-03T21:09:51.916Z,97571.00
2023-01-03T21:12:18.487Z,97569.28
2023-01-03T21:14:45.622Z,97543.38
2023-01-03T21:17:12.329Z,97530.53
2023-01-03T21:19:39.172Z,97524.53
2023-01-03T21:22:19.480Z,97564.84
2023-01-03T21:24:47.876Z,97571.53
2023-01-03T21:27:16.306Z,97530.28
2023-01-03T21:29:42.988Z,97563.94
2023-01-03T21:32:11.087Z,97527.00
2023-01-03T21:34:37.758Z,97526.09
2023-01-03T21:37:04.359Z,97550.94
2023-01-03T21:39:31.321Z,97535.63
2023-01-03T21:42:21.349Z,97536.19
2023-01-03T21:44:48.051Z,97525.56
2023-01-03T21:47:14.712Z,97522.88
2023-01-03T21:49:41.439Z,97496.97
2023-01-03T21:52:08.023Z,97514.59
2023-01-03T21:54:34.657Z,97502.59
2023-01-03T21:57:01.338Z,97498.66
2023-01-03T21:59:30.348Z,97516.31
2023-01-03T22:02:15.597Z,97530.22
2023-01-03T22:04:42.262Z,97534.59
2023-01-03T22:07:08.920Z,97539.56
2023-01-03T22:09:54.190Z,97524.44
2023-01-03T22:12:21.394Z,97428.47
2023-01-03T22:14:48.057Z,97511.22
2023-01-03T22:17:16.588Z,97516.19
2023-01-03T22:19:43.299Z,97477.44
2023-01-03T22:22:10.087Z,97493.25
2023-01-03T22:24:36.728Z,97535.06
2023-01-03T22:27:03.458Z,97522.97
2023-01-03T22:29:32.365Z,97494.44
2023-01-03T22:31:59.033Z,97508.84
2023-01-03T22:34:25.790Z,97503.22
2023-01-03T22:36:52.454Z,97525.91
2023-01-03T22:39:19.108Z,97512.59
2023-01-03T22:41:45.749Z,97513.72
2023-01-03T22:44:12.528Z,97532.38
2023-01-03T22:46:39.588Z,97536.31
2023-01-03T22:49:27.595Z,97516.31
2023-01-03T22:51:54.209Z,97523.84
2023-01-03T22:54:20.930Z,97533.34
2023-01-03T22:56:47.716Z,97506.47
2023-01-03T22:59:14.463Z,97495.75
2023-01-03T23:01:41.157Z,97496.88
2023-01-03T23:04:08.154Z,97525.47
2023-01-03T23:06:36.333Z,97533.03
2023-01-03T23:09:04.051Z,97540.28
2023-01-03T23:11:51.304Z,97502.78
2023-01-03T23:14:19.979Z,97530.91
2023-01-03T23:16:47.216Z,97509.31
2023-01-03T23:19:16.000Z,97521.84
2023-01-03T23:21:45.020Z,97507.63
2023-01-03T23:24:16.824Z,97496.19
2023-01-03T23:26:43.736Z,97485.41
2023-01-03T23:29:11.768Z,97467.13
2023-01-03T23:31:38.421Z,97468.16
2023-01-03T23:34:04.999Z,97455.19
2023-01-03T23:36:31.591Z,97479.47
2023-01-03T23:38:58.172Z,97515.19
2023-01-03T23:41:24.824Z,97462.19
2023-01-03T23:43:53.105Z,97499.44
2023-01-03T23:46:23.295Z,97468.03
2023-01-03T23:48:57.402Z,97508.38
2023-01-03T23:51:24.685Z,97511.16
2023-01-03T23:53:52.553Z,97459.59
2023-01-03T23:56:21.815Z,97512.28
2023-01-03T23:58:48.823Z,97483.56
